DucheSS Of Scandinavia — OUZI2 — position and weather

sailwx.info

Track history (hours):
 
Tides and Currents Weather Stations Pressure Air Temp Water Temp Dewpoint Dewpoint Depression Visibility Wind Speed Wind Dir Waves Ship Positions

DucheSS Of Scandinavia

Operator: DFDS A/S

Last reported at 2014-Oct-23 07:33 UTC. Time now 2014-Oct-23 08:00 UTC.
Position N 58°56' E 011°10'.

Length 134 m; draft 5.2 m.

Type: Passenger vessel. MMSI: 219002929.

Date/timePositionNaut miles runAvg speedWind from/ knotsBaromVisibWave heightAir tempDewpointWater temp
2014-Oct-23 07:33N 58°56' E 011°10'9 9.0
2014-Oct-23 06:34N 59°00' E 010°55'1615.9
2014-Oct-23 05:33N 59°01' E 010°24'9 8.8
2014-Oct-23 04:34N 59°08' E 010°14'1 1.4
2014-Oct-23 03:33N 59°06' E 010°14'0 0.0
2014-Oct-23 02:29N 59°06' E 010°14'0 0.0
2014-Oct-23 01:30N 59°06' E 010°14'0 0.0
2014-Oct-23 00:31N 59°06' E 010°14'0 0.0
2014-Oct-22 23:28N 59°06' E 010°14'0 0.0
2014-Oct-22 22:32N 59°06' E 010°14'0 0.0
2014-Oct-22 21:33N 59°06' E 010°14'0 0.0
2014-Oct-22 20:33N 59°06' E 010°14'0 0.0
2014-Oct-22 19:28N 59°06' E 010°14'0 0.0
2014-Oct-22 18:32N 59°06' E 010°14'0 0.0
2014-Oct-22 17:33N 59°06' E 010°14'1 1.4
2014-Oct-22 16:33N 59°08' E 010°14'10 9.7
2014-Oct-22 15:33N 59°01' E 010°26'1615.6
2014-Oct-22 14:34N 59°00' E 010°57'8 8.0
2014-Oct-22 13:32N 58°56' E 011°10'1313.2
2014-Oct-22 12:33N 59°02' E 010°47'1615.7
2014-Oct-22 11:34N 59°02' E 010°17'6 6.2
2014-Oct-22 10:33N 59°08' E 010°14'7 7.5
2014-Oct-22 09:33N 59°01' E 010°21'1414.2
2014-Oct-22 08:34N 59°02' E 010°49'1212.3
2014-Oct-22 07:33N 58°56' E 011°10'1010.3
2014-Oct-22 06:33N 59°01' E 010°52'1616.0
2014-Oct-22 05:33N 59°01' E 010°22'8 7.7
2014-Oct-22 04:33N 59°08' E 010°14'1 1.4
2014-Oct-22 03:33N 59°06' E 010°14'0 0.0
2014-Oct-22 02:31N 59°06' E 010°14'0 0.0
2014-Oct-22 01:32N 59°06' E 010°14'0 0.0
2014-Oct-22 00:32N 59°06' E 010°14'0 0.0
2014-Oct-21 23:33N 59°06' E 010°14'0 0.0
2014-Oct-21 22:34N 59°06' E 010°14'0 0.0
2014-Oct-21 21:31N 59°06' E 010°14'0 0.0
2014-Oct-21 20:26N 59°06' E 010°14'0 0.0
2014-Oct-21 19:33N 59°06' E 010°14'0 0.0
2014-Oct-21 18:33N 59°06' E 010°14'0 0.0
2014-Oct-21 17:34N 59°06' E 010°14'1 1.4
2014-Oct-21 16:33N 59°08' E 010°14'1010.1
2014-Oct-21 15:33N 59°00' E 010°28'1414.1
2014-Oct-21 14:33N 59°00' E 010°55'9 9.0
2014-Oct-21 13:33N 58°56' E 011°10'1312.9
2014-Oct-21 12:33N 59°02' E 010°48'1616.1
2014-Oct-21 11:33N 59°02' E 010°16'6 6.2
2014-Oct-21 10:34N 59°08' E 010°14'8 7.5
2014-Oct-21 09:33N 59°01' E 010°21'1615.9
2014-Oct-21 08:33N 59°01' E 010°52'1110.6
2014-Oct-21 07:34N 58°56' E 011°10'1313.3
2014-Oct-21 06:33N 59°02' E 010°47'1615.7
2014-Oct-21 05:33N 59°02' E 010°16'6 6.2
2014-Oct-21 04:33N 59°08' E 010°14'1 1.4
2014-Oct-21 03:33N 59°06' E 010°14'0 0.0
2014-Oct-21 02:33N 59°06' E 010°14'0 0.0
2014-Oct-21 01:28N 59°06' E 010°14'0 0.0
2014-Oct-21 00:31N 59°06' E 010°14'0 0.0
2014-Oct-20 23:32N 59°06' E 010°14'0 0.0
2014-Oct-20 22:33N 59°06' E 010°14'0 0.0
2014-Oct-20 21:33N 59°06' E 010°14'0 0.0
2014-Oct-20 20:31N 59°06' E 010°14'0 0.0
2014-Oct-20 19:32N 59°06' E 010°14'0 0.0
2014-Oct-20 18:32N 59°06' E 010°14'0 0.0
2014-Oct-20 17:33N 59°06' E 010°14'1 1.4
2014-Oct-20 16:33N 59°07' E 010°14'10 9.9
2014-Oct-20 15:33N 59°01' E 010°27'1514.6
2014-Oct-20 14:34N 59°00' E 010°56'9 8.7
2014-Oct-20 13:34N 58°56' E 011°10'1313.3
2014-Oct-20 12:34N 59°02' E 010°47'1615.7
2014-Oct-20 11:33N 59°02' E 010°16'6 6.2
2014-Oct-20 10:33N 59°08' E 010°14'8 7.6
2014-Oct-20 09:33N 59°01' E 010°21'1514.9
2014-Oct-20 08:33N 59°01' E 010°51'1111.4
2014-Oct-20 07:33N 58°56' E 011°10'1010.2
2014-Oct-20 06:34N 59°01' E 010°53'1615.5
2014-Oct-20 05:33N 59°01' E 010°23'8 8.1
2014-Oct-20 04:33N 59°08' E 010°14'1 1.4
2014-Oct-20 03:33N 59°06' E 010°14'0 0.0
2014-Oct-20 02:32N 59°06' E 010°14'0 0.0
2014-Oct-20 01:32N 59°06' E 010°14'0 0.0
2014-Oct-20 00:33N 59°06' E 010°14'0 0.0
2014-Oct-19 23:31N 59°06' E 010°14'0 0.0
2014-Oct-19 22:31N 59°06' E 010°14'0 0.0
2014-Oct-19 21:32N 59°06' E 010°14'0 0.0
2014-Oct-19 20:33N 59°06' E 010°14'0 0.0
2014-Oct-19 19:33N 59°06' E 010°14'0 0.0
2014-Oct-19 18:31N 59°06' E 010°14'0 0.0
2014-Oct-19 17:32N 59°06' E 010°14'1 1.2
2014-Oct-19 16:33N 59°07' E 010°14'10 9.8
2014-Oct-19 15:34N 59°01' E 010°27'1515.1
2014-Oct-19 14:33N 59°00' E 010°57'8 8.1
2014-Oct-19 13:33N 58°56' E 011°10'1212.0
2014-Oct-19 12:33N 59°01' E 010°49'1616.0
2014-Oct-19 11:33N 59°01' E 010°18'7 6.5
2014-Oct-19 10:33N 59°08' E 010°14'7 7.2
2014-Oct-19 09:33N 59°01' E 010°21'1514.6
2014-Oct-19 08:33N 59°01' E 010°49'1212.2
2014-Oct-19 07:33N 58°56' E 011°10'9 9.1
2014-Oct-19 06:33N 59°01' E 010°55'1615.8
2014-Oct-19 05:33N 59°01' E 010°24'9 8.8
2014-Oct-19 04:33N 59°08' E 010°14'1 1.4
2014-Oct-19 03:33N 59°06' E 010°14'0 0.0
2014-Oct-19 02:29N 59°06' E 010°14'0 0.0
2014-Oct-19 01:29N 59°06' E 010°14'0 0.0
2014-Oct-19 00:33N 59°06' E 010°14'0 0.0
2014-Oct-18 23:31N 59°06' E 010°14'0 0.0
2014-Oct-18 22:22N 59°06' E 010°14'0 0.0
2014-Oct-18 21:29N 59°06' E 010°14'0 0.0
2014-Oct-18 20:30N 59°06' E 010°14'0 0.0
2014-Oct-18 19:30N 59°06' E 010°14'0 0.0
2014-Oct-18 18:31N 59°06' E 010°14'0 0.0
2014-Oct-18 17:26N 59°06' E 010°14'1 1.6
2014-Oct-18 16:33N 59°07' E 010°14'1110.8
2014-Oct-18 15:34N 59°00' E 010°29'1515.0
2014-Oct-18 14:34N 58°60' E 010°59'7 7.1
2014-Oct-18 13:33N 58°56' E 011°10'1312.8
2014-Oct-18 12:33N 59°02' E 010°48'1716.5
2014-Oct-18 11:33N 59°02' E 010°16'6 5.8
2014-Oct-18 10:34N 59°08' E 010°14'8 7.7
2014-Oct-18 09:33N 59°01' E 010°22'1514.9
2014-Oct-18 08:33N 59°01' E 010°51'1111.3
2014-Oct-18 07:33N 58°56' E 011°10'1010.0
2014-Oct-18 06:33N 59°01' E 010°53'1616.3
2014-Oct-18 05:33N 59°01' E 010°22'8 7.6
2014-Oct-18 04:33N 59°08' E 010°14'1 1.4
2014-Oct-18 03:33N 59°06' E 010°14'0 0.0
2014-Oct-18 02:25N 59°06' E 010°14'0 0.0
2014-Oct-18 01:29N 59°06' E 010°14'0 0.0
2014-Oct-18 00:24N 59°06' E 010°14'0 0.0
2014-Oct-17 23:33N 59°06' E 010°14'0 0.0
2014-Oct-17 22:31N 59°06' E 010°14'0 0.0
2014-Oct-17 21:32N 59°06' E 010°14'0 0.0
2014-Oct-17 20:26N 59°06' E 010°14'0 0.0
2014-Oct-17 19:30N 59°06' E 010°14'0 0.0
2014-Oct-17 18:22N 59°06' E 010°14'0 0.0
2014-Oct-17 17:31N 59°06' E 010°14'1 1.3
2014-Oct-17 16:33N 59°07' E 010°14'1110.8
2014-Oct-17 15:34N 59°01' E 010°30'1515.0
2014-Oct-17 14:33N 58°60' E 010°59'7 6.8
2014-Oct-17 13:33N 58°56' E 011°10'1312.5
2014-Oct-17 12:33N 59°01' E 010°48'1615.9
2014-Oct-17 11:33N 59°02' E 010°17'6 6.4
2014-Oct-17 10:33N 59°08' E 010°14'7 7.3
2014-Oct-17 09:33N 59°01' E 010°21'1514.8
2014-Oct-17 08:34N 59°01' E 010°49'1212.0
2014-Oct-17 07:33N 58°56' E 011°10'9 8.8
2014-Oct-17 06:33N 59°00' E 010°55'1615.5
2014-Oct-17 05:33N 59°00' E 010°25'9 9.4
2014-Oct-17 04:33N 59°08' E 010°14'1 1.4
2014-Oct-17 03:33N 59°06' E 010°14'0 0.0
2014-Oct-17 02:31N 59°06' E 010°14'0 0.0
2014-Oct-17 01:26N 59°06' E 010°14'0 0.0
2014-Oct-17 00:30N 59°06' E 010°14'0 0.0
2014-Oct-16 23:33N 59°06' E 010°14'0 0.0
2014-Oct-16 22:31N 59°06' E 010°14'0 0.0
2014-Oct-16 21:32N 59°06' E 010°14'0 0.0
2014-Oct-16 20:26N 59°06' E 010°14'0 0.0
2014-Oct-16 19:30N 59°06' E 010°14'0 0.0
2014-Oct-16 18:31N 59°06' E 010°14'0 0.0
2014-Oct-16 17:31N 59°06' E 010°14'1 1.3
2014-Oct-16 16:32N 59°07' E 010°14'1010.2
2014-Oct-16 15:33N 59°00' E 010°27'1514.9
2014-Oct-16 14:33N 59°00' E 010°56'8 8.3
2014-Oct-16 13:33N 58°56' E 011°10'1211.5
2014-Oct-16 12:33N 59°01' E 010°50'1515.5
2014-Oct-16 11:33N 59°01' E 010°20'7 7.2
2014-Oct-16 10:33N 59°08' E 010°14'7 6.9
2014-Oct-16 09:33N 59°01' E 010°20'1515.0
2014-Oct-16 08:33N 59°01' E 010°49'1212.3
2014-Oct-16 07:33N 58°56' E 011°10'10 9.7
2014-Oct-16 06:33N 59°01' E 010°54'1616.0
2014-Oct-16 05:34N 59°01' E 010°23'8 8.3
2014-Oct-16 04:33N 59°08' E 010°14'1 1.4
2014-Oct-16 03:33N 59°06' E 010°14'0 0.0
2014-Oct-16 02:31N 59°06' E 010°14'0 0.0
2014-Oct-16 01:32N 59°06' E 010°14'0 0.0
2014-Oct-16 00:26N 59°06' E 010°14'0 0.0
2014-Oct-15 23:33N 59°06' E 010°14'0 0.0
2014-Oct-15 22:28N 59°06' E 010°14'0 0.0
2014-Oct-15 21:31N 59°06' E 010°14'0 0.0
2014-Oct-15 20:29N 59°06' E 010°14'0 0.0
2014-Oct-15 19:30N 59°06' E 010°14'0 0.0
2014-Oct-15 18:30N 59°06' E 010°14'0 0.0
2014-Oct-15 17:33N 59°06' E 010°14'1 1.4
2014-Oct-15 16:33N 59°08' E 010°14'10 9.9
2014-Oct-15 15:33N 59°01' E 010°27'1514.8
2014-Oct-15 14:33N 59°00' E 010°56'8 8.5
2014-Oct-15 13:33N 58°56' E 011°10'1212.3
2014-Oct-15 12:34N 59°01' E 010°49'1615.5
2014-Oct-15 11:33N 59°01' E 010°18'7 6.7
2014-Oct-15 10:33N 59°08' E 010°14'7 7.1
2014-Oct-15 09:33N 59°01' E 010°20'1514.8
2014-Oct-15 08:33N 59°01' E 010°49'1212.3
2014-Oct-15 07:34N 58°56' E 011°10'9 8.5
2014-Oct-15 06:33N 59°00' E 010°56'1616.1
2014-Oct-15 05:33N 59°00' E 010°25'9 9.1
2014-Oct-15 04:33N 59°08' E 010°14'1 1.4
2014-Oct-15 03:33N 59°06' E 010°14'0 0.0
2014-Oct-15 02:31N 59°06' E 010°14'0 0.0
2014-Oct-15 01:31N 59°06' E 010°14'0 0.0
2014-Oct-15 00:29N 59°06' E 010°14'0 0.0
2014-Oct-14 23:27N 59°06' E 010°14'0 0.0
2014-Oct-14 22:33N 59°06' E 010°14'0 0.0
2014-Oct-14 21:13N 59°06' E 010°14'0 0.0
2014-Oct-14 20:23N 59°06' E 010°14'0 0.0
2014-Oct-14 19:29N 59°06' E 010°14'0 0.0
2014-Oct-14 18:33N 59°06' E 010°14'0 0.0
2014-Oct-14 17:28N 59°06' E 010°14'1 1.6
2014-Oct-14 16:33N 59°08' E 010°14'1010.1
2014-Oct-14 15:33N 59°01' E 010°28'1413.6
2014-Oct-14 14:33N 59°00' E 010°54'9 9.4
2014-Oct-14 13:33N 58°56' E 011°10'1212.0
2014-Oct-14 12:33N 59°01' E 010°49'1615.6
2014-Oct-14 11:33N 59°01' E 010°19'7 6.8
2014-Oct-14 10:33N 59°08' E 010°14'7 6.8
2014-Oct-14 09:33N 59°01' E 010°19'1615.7
2014-Oct-14 08:33N 59°01' E 010°49'1211.9
2014-Oct-14 07:33N 58°56' E 011°10'8 8.5
2014-Oct-14 06:33N 59°00' E 010°56'1616.2
2014-Oct-14 05:33N 59°00' E 010°24'9 9.0
2014-Oct-14 04:33N 59°08' E 010°14'1 1.4
2014-Oct-14 03:33N 59°06' E 010°14'0 0.0
2014-Oct-14 02:34N 59°06' E 010°14'0 0.0
2014-Oct-14 01:33N 59°06' E 010°14'0 0.0
2014-Oct-14 00:33N 59°06' E 010°14'0 0.0
2014-Oct-13 23:33N 59°06' E 010°14'0 0.0
2014-Oct-13 22:33N 59°06' E 010°14'0 0.0
2014-Oct-13 21:33N 59°06' E 010°14'0 0.0
2014-Oct-13 20:33N 59°06' E 010°14'0 0.0
2014-Oct-13 19:33N 59°06' E 010°14'0 0.0
2014-Oct-13 18:33N 59°06' E 010°14'0 0.0
2014-Oct-13 17:33N 59°06' E 010°14'1 1.4
2014-Oct-13 16:33N 59°08' E 010°14'9 9.1
2014-Oct-13 15:34N 59°01' E 010°25'1615.6
2014-Oct-13 14:33N 59°00' E 010°55'9 9.0
2014-Oct-13 13:33N 58°56' E 011°10'1212.2
2014-Oct-13 12:34N 59°02' E 010°49'1615.6
2014-Oct-13 11:33N 59°01' E 010°19'7 6.7
2014-Oct-13 10:34N 59°08' E 010°14'7 6.9
2014-Oct-13 09:33N 59°01' E 010°20'1514.8
2014-Oct-13 08:33N 59°01' E 010°49'1212.4
2014-Oct-13 07:34N 58°56' E 011°10'  
Track history (hours):
 
Tides and Currents Weather Stations Pressure Air Temp Water Temp Dewpoint Dewpoint Depression Visibility Wind Speed Wind Dir Waves Ship Positions

DucheSS Of Scandinavia

Operator: DFDS A/S

Last reported at 2014-Oct-23 07:33 UTC. Time now 2014-Oct-23 08:00 UTC.
Position N 58°56' E 011°10'.

Length 134 m; draft 5.2 m.

Type: Passenger vessel. MMSI: 219002929.

Date/timePositionNaut miles runAvg speedWind from/ knotsBaromVisibWave heightAir tempDewpointWater temp
2014-Oct-23 07:33N 58°56' E 011°10'9 9.0
2014-Oct-23 06:34N 59°00' E 010°55'1615.9
2014-Oct-23 05:33N 59°01' E 010°24'9 8.8
2014-Oct-23 04:34N 59°08' E 010°14'1 1.4
2014-Oct-23 03:33N 59°06' E 010°14'0 0.0
2014-Oct-23 02:29N 59°06' E 010°14'0 0.0
2014-Oct-23 01:30N 59°06' E 010°14'0 0.0
2014-Oct-23 00:31N 59°06' E 010°14'0 0.0
2014-Oct-22 23:28N 59°06' E 010°14'0 0.0
2014-Oct-22 22:32N 59°06' E 010°14'0 0.0
2014-Oct-22 21:33N 59°06' E 010°14'0 0.0
2014-Oct-22 20:33N 59°06' E 010°14'0 0.0
2014-Oct-22 19:28N 59°06' E 010°14'0 0.0
2014-Oct-22 18:32N 59°06' E 010°14'0 0.0
2014-Oct-22 17:33N 59°06' E 010°14'1 1.4
2014-Oct-22 16:33N 59°08' E 010°14'10 9.7
2014-Oct-22 15:33N 59°01' E 010°26'1615.6
2014-Oct-22 14:34N 59°00' E 010°57'8 8.0
2014-Oct-22 13:32N 58°56' E 011°10'1313.2
2014-Oct-22 12:33N 59°02' E 010°47'1615.7
2014-Oct-22 11:34N 59°02' E 010°17'6 6.2
2014-Oct-22 10:33N 59°08' E 010°14'7 7.5
2014-Oct-22 09:33N 59°01' E 010°21'1414.2
2014-Oct-22 08:34N 59°02' E 010°49'1212.3
2014-Oct-22 07:33N 58°56' E 011°10'1010.3
2014-Oct-22 06:33N 59°01' E 010°52'1616.0
2014-Oct-22 05:33N 59°01' E 010°22'8 7.7
2014-Oct-22 04:33N 59°08' E 010°14'1 1.4
2014-Oct-22 03:33N 59°06' E 010°14'0 0.0
2014-Oct-22 02:31N 59°06' E 010°14'0 0.0
2014-Oct-22 01:32N 59°06' E 010°14'0 0.0
2014-Oct-22 00:32N 59°06' E 010°14'0 0.0
2014-Oct-21 23:33N 59°06' E 010°14'0 0.0
2014-Oct-21 22:34N 59°06' E 010°14'0 0.0
2014-Oct-21 21:31N 59°06' E 010°14'0 0.0
2014-Oct-21 20:26N 59°06' E 010°14'0 0.0
2014-Oct-21 19:33N 59°06' E 010°14'0 0.0
2014-Oct-21 18:33N 59°06' E 010°14'0 0.0
2014-Oct-21 17:34N 59°06' E 010°14'1 1.4
2014-Oct-21 16:33N 59°08' E 010°14'1010.1
2014-Oct-21 15:33N 59°00' E 010°28'1414.1
2014-Oct-21 14:33N 59°00' E 010°55'9 9.0
2014-Oct-21 13:33N 58°56' E 011°10'1312.9
2014-Oct-21 12:33N 59°02' E 010°48'1616.1
2014-Oct-21 11:33N 59°02' E 010°16'6 6.2
2014-Oct-21 10:34N 59°08' E 010°14'8 7.5
2014-Oct-21 09:33N 59°01' E 010°21'1615.9
2014-Oct-21 08:33N 59°01' E 010°52'1110.6
2014-Oct-21 07:34N 58°56' E 011°10'1313.3
2014-Oct-21 06:33N 59°02' E 010°47'1615.7
2014-Oct-21 05:33N 59°02' E 010°16'6 6.2
2014-Oct-21 04:33N 59°08' E 010°14'1 1.4
2014-Oct-21 03:33N 59°06' E 010°14'0 0.0
2014-Oct-21 02:33N 59°06' E 010°14'0 0.0
2014-Oct-21 01:28N 59°06' E 010°14'0 0.0
2014-Oct-21 00:31N 59°06' E 010°14'0 0.0
2014-Oct-20 23:32N 59°06' E 010°14'0 0.0
2014-Oct-20 22:33N 59°06' E 010°14'0 0.0
2014-Oct-20 21:33N 59°06' E 010°14'0 0.0
2014-Oct-20 20:31N 59°06' E 010°14'0 0.0
2014-Oct-20 19:32N 59°06' E 010°14'0 0.0
2014-Oct-20 18:32N 59°06' E 010°14'0 0.0
2014-Oct-20 17:33N 59°06' E 010°14'1 1.4
2014-Oct-20 16:33N 59°07' E 010°14'10 9.9
2014-Oct-20 15:33N 59°01' E 010°27'1514.6
2014-Oct-20 14:34N 59°00' E 010°56'9 8.7
2014-Oct-20 13:34N 58°56' E 011°10'1313.3
2014-Oct-20 12:34N 59°02' E 010°47'1615.7
2014-Oct-20 11:33N 59°02' E 010°16'6 6.2
2014-Oct-20 10:33N 59°08' E 010°14'8 7.6
2014-Oct-20 09:33N 59°01' E 010°21'1514.9
2014-Oct-20 08:33N 59°01' E 010°51'1111.4
2014-Oct-20 07:33N 58°56' E 011°10'1010.2
2014-Oct-20 06:34N 59°01' E 010°53'1615.5
2014-Oct-20 05:33N 59°01' E 010°23'8 8.1
2014-Oct-20 04:33N 59°08' E 010°14'1 1.4
2014-Oct-20 03:33N 59°06' E 010°14'0 0.0
2014-Oct-20 02:32N 59°06' E 010°14'0 0.0
2014-Oct-20 01:32N 59°06' E 010°14'0 0.0
2014-Oct-20 00:33N 59°06' E 010°14'0 0.0
2014-Oct-19 23:31N 59°06' E 010°14'0 0.0
2014-Oct-19 22:31N 59°06' E 010°14'0 0.0
2014-Oct-19 21:32N 59°06' E 010°14'0 0.0
2014-Oct-19 20:33N 59°06' E 010°14'0 0.0
2014-Oct-19 19:33N 59°06' E 010°14'0 0.0
2014-Oct-19 18:31N 59°06' E 010°14'0 0.0
2014-Oct-19 17:32N 59°06' E 010°14'1 1.2
2014-Oct-19 16:33N 59°07' E 010°14'10 9.8
2014-Oct-19 15:34N 59°01' E 010°27'1515.1
2014-Oct-19 14:33N 59°00' E 010°57'8 8.1
2014-Oct-19 13:33N 58°56' E 011°10'1212.0
2014-Oct-19 12:33N 59°01' E 010°49'1616.0
2014-Oct-19 11:33N 59°01' E 010°18'7 6.5
2014-Oct-19 10:33N 59°08' E 010°14'7 7.2
2014-Oct-19 09:33N 59°01' E 010°21'1514.6
2014-Oct-19 08:33N 59°01' E 010°49'1212.2
2014-Oct-19 07:33N 58°56' E 011°10'9 9.1
2014-Oct-19 06:33N 59°01' E 010°55'1615.8
2014-Oct-19 05:33N 59°01' E 010°24'9 8.8
2014-Oct-19 04:33N 59°08' E 010°14'1 1.4
2014-Oct-19 03:33N 59°06' E 010°14'0 0.0
2014-Oct-19 02:29N 59°06' E 010°14'0 0.0
2014-Oct-19 01:29N 59°06' E 010°14'0 0.0
2014-Oct-19 00:33N 59°06' E 010°14'0 0.0
2014-Oct-18 23:31N 59°06' E 010°14'0 0.0
2014-Oct-18 22:22N 59°06' E 010°14'0 0.0
2014-Oct-18 21:29N 59°06' E 010°14'0 0.0
2014-Oct-18 20:30N 59°06' E 010°14'0 0.0
2014-Oct-18 19:30N 59°06' E 010°14'0 0.0
2014-Oct-18 18:31N 59°06' E 010°14'0 0.0
2014-Oct-18 17:26N 59°06' E 010°14'1 1.6
2014-Oct-18 16:33N 59°07' E 010°14'1110.8
2014-Oct-18 15:34N 59°00' E 010°29'1515.0
2014-Oct-18 14:34N 58°60' E 010°59'7 7.1
2014-Oct-18 13:33N 58°56' E 011°10'1312.8
2014-Oct-18 12:33N 59°02' E 010°48'1716.5
2014-Oct-18 11:33N 59°02' E 010°16'6 5.8
2014-Oct-18 10:34N 59°08' E 010°14'8 7.7
2014-Oct-18 09:33N 59°01' E 010°22'1514.9
2014-Oct-18 08:33N 59°01' E 010°51'1111.3
2014-Oct-18 07:33N 58°56' E 011°10'1010.0
2014-Oct-18 06:33N 59°01' E 010°53'1616.3
2014-Oct-18 05:33N 59°01' E 010°22'8 7.6
2014-Oct-18 04:33N 59°08' E 010°14'1 1.4
2014-Oct-18 03:33N 59°06' E 010°14'0 0.0
2014-Oct-18 02:25N 59°06' E 010°14'0 0.0
2014-Oct-18 01:29N 59°06' E 010°14'0 0.0
2014-Oct-18 00:24N 59°06' E 010°14'0 0.0
2014-Oct-17 23:33N 59°06' E 010°14'0 0.0
2014-Oct-17 22:31N 59°06' E 010°14'0 0.0
2014-Oct-17 21:32N 59°06' E 010°14'0 0.0
2014-Oct-17 20:26N 59°06' E 010°14'0 0.0
2014-Oct-17 19:30N 59°06' E 010°14'0 0.0
2014-Oct-17 18:22N 59°06' E 010°14'0 0.0
2014-Oct-17 17:31N 59°06' E 010°14'1 1.3
2014-Oct-17 16:33N 59°07' E 010°14'1110.8
2014-Oct-17 15:34N 59°01' E 010°30'1515.0
2014-Oct-17 14:33N 58°60' E 010°59'7 6.8
2014-Oct-17 13:33N 58°56' E 011°10'1312.5
2014-Oct-17 12:33N 59°01' E 010°48'1615.9
2014-Oct-17 11:33N 59°02' E 010°17'6 6.4
2014-Oct-17 10:33N 59°08' E 010°14'7 7.3
2014-Oct-17 09:33N 59°01' E 010°21'1514.8
2014-Oct-17 08:34N 59°01' E 010°49'1212.0
2014-Oct-17 07:33N 58°56' E 011°10'9 8.8
2014-Oct-17 06:33N 59°00' E 010°55'1615.5
2014-Oct-17 05:33N 59°00' E 010°25'9 9.4
2014-Oct-17 04:33N 59°08' E 010°14'1 1.4
2014-Oct-17 03:33N 59°06' E 010°14'0 0.0
2014-Oct-17 02:31N 59°06' E 010°14'0 0.0
2014-Oct-17 01:26N 59°06' E 010°14'0 0.0
2014-Oct-17 00:30N 59°06' E 010°14'0 0.0
2014-Oct-16 23:33N 59°06' E 010°14'0 0.0
2014-Oct-16 22:31N 59°06' E 010°14'0 0.0
2014-Oct-16 21:32N 59°06' E 010°14'0 0.0
2014-Oct-16 20:26N 59°06' E 010°14'0 0.0
2014-Oct-16 19:30N 59°06' E 010°14'0 0.0
2014-Oct-16 18:31N 59°06' E 010°14'0 0.0
2014-Oct-16 17:31N 59°06' E 010°14'1 1.3
2014-Oct-16 16:32N 59°07' E 010°14'1010.2
2014-Oct-16 15:33N 59°00' E 010°27'1514.9
2014-Oct-16 14:33N 59°00' E 010°56'8 8.3
2014-Oct-16 13:33N 58°56' E 011°10'1211.5
2014-Oct-16 12:33N 59°01' E 010°50'1515.5
2014-Oct-16 11:33N 59°01' E 010°20'7 7.2
2014-Oct-16 10:33N 59°08' E 010°14'7 6.9
2014-Oct-16 09:33N 59°01' E 010°20'1515.0
2014-Oct-16 08:33N 59°01' E 010°49'1212.3
2014-Oct-16 07:33N 58°56' E 011°10'10 9.7
2014-Oct-16 06:33N 59°01' E 010°54'1616.0
2014-Oct-16 05:34N 59°01' E 010°23'8 8.3
2014-Oct-16 04:33N 59°08' E 010°14'1 1.4
2014-Oct-16 03:33N 59°06' E 010°14'0 0.0
2014-Oct-16 02:31N 59°06' E 010°14'0 0.0
2014-Oct-16 01:32N 59°06' E 010°14'0 0.0
2014-Oct-16 00:26N 59°06' E 010°14'0 0.0
2014-Oct-15 23:33N 59°06' E 010°14'0 0.0
2014-Oct-15 22:28N 59°06' E 010°14'0 0.0
2014-Oct-15 21:31N 59°06' E 010°14'0 0.0
2014-Oct-15 20:29N 59°06' E 010°14'0 0.0
2014-Oct-15 19:30N 59°06' E 010°14'0 0.0
2014-Oct-15 18:30N 59°06' E 010°14'0 0.0
2014-Oct-15 17:33N 59°06' E 010°14'1 1.4
2014-Oct-15 16:33N 59°08' E 010°14'10 9.9
2014-Oct-15 15:33N 59°01' E 010°27'1514.8
2014-Oct-15 14:33N 59°00' E 010°56'8 8.5
2014-Oct-15 13:33N 58°56' E 011°10'1212.3
2014-Oct-15 12:34N 59°01' E 010°49'1615.5
2014-Oct-15 11:33N 59°01' E 010°18'7 6.7
2014-Oct-15 10:33N 59°08' E 010°14'7 7.1
2014-Oct-15 09:33N 59°01' E 010°20'1514.8
2014-Oct-15 08:33N 59°01' E 010°49'1212.3
2014-Oct-15 07:34N 58°56' E 011°10'9 8.5
2014-Oct-15 06:33N 59°00' E 010°56'1616.1
2014-Oct-15 05:33N 59°00' E 010°25'9 9.1
2014-Oct-15 04:33N 59°08' E 010°14'1 1.4
2014-Oct-15 03:33N 59°06' E 010°14'0 0.0
2014-Oct-15 02:31N 59°06' E 010°14'0 0.0
2014-Oct-15 01:31N 59°06' E 010°14'0 0.0
2014-Oct-15 00:29N 59°06' E 010°14'0 0.0
2014-Oct-14 23:27N 59°06' E 010°14'0 0.0
2014-Oct-14 22:33N 59°06' E 010°14'0 0.0
2014-Oct-14 21:13N 59°06' E 010°14'0 0.0
2014-Oct-14 20:23N 59°06' E 010°14'0 0.0
2014-Oct-14 19:29N 59°06' E 010°14'0 0.0
2014-Oct-14 18:33N 59°06' E 010°14'0 0.0
2014-Oct-14 17:28N 59°06' E 010°14'1 1.6
2014-Oct-14 16:33N 59°08' E 010°14'1010.1
2014-Oct-14 15:33N 59°01' E 010°28'1413.6
2014-Oct-14 14:33N 59°00' E 010°54'9 9.4
2014-Oct-14 13:33N 58°56' E 011°10'1212.0
2014-Oct-14 12:33N 59°01' E 010°49'1615.6
2014-Oct-14 11:33N 59°01' E 010°19'7 6.8
2014-Oct-14 10:33N 59°08' E 010°14'7 6.8
2014-Oct-14 09:33N 59°01' E 010°19'1615.7
2014-Oct-14 08:33N 59°01' E 010°49'1211.9
2014-Oct-14 07:33N 58°56' E 011°10'8 8.5
2014-Oct-14 06:33N 59°00' E 010°56'1616.2
2014-Oct-14 05:33N 59°00' E 010°24'9 9.0
2014-Oct-14 04:33N 59°08' E 010°14'1 1.4
2014-Oct-14 03:33N 59°06' E 010°14'0 0.0
2014-Oct-14 02:34N 59°06' E 010°14'0 0.0
2014-Oct-14 01:33N 59°06' E 010°14'0 0.0
2014-Oct-14 00:33N 59°06' E 010°14'0 0.0
2014-Oct-13 23:33N 59°06' E 010°14'0 0.0
2014-Oct-13 22:33N 59°06' E 010°14'0 0.0
2014-Oct-13 21:33N 59°06' E 010°14'0 0.0
2014-Oct-13 20:33N 59°06' E 010°14'0 0.0
2014-Oct-13 19:33N 59°06' E 010°14'0 0.0
2014-Oct-13 18:33N 59°06' E 010°14'0 0.0
2014-Oct-13 17:33N 59°06' E 010°14'1 1.4
2014-Oct-13 16:33N 59°08' E 010°14'9 9.1
2014-Oct-13 15:34N 59°01' E 010°25'1615.6
2014-Oct-13 14:33N 59°00' E 010°55'9 9.0
2014-Oct-13 13:33N 58°56' E 011°10'1212.2
2014-Oct-13 12:34N 59°02' E 010°49'1615.6
2014-Oct-13 11:33N 59°01' E 010°19'7 6.7
2014-Oct-13 10:34N 59°08' E 010°14'7 6.9
2014-Oct-13 09:33N 59°01' E 010°20'1514.8
2014-Oct-13 08:33N 59°01' E 010°49'1212.4
2014-Oct-13 07:34N 58°56' E 011°10'  

Dump ship's entire track history